Time;durP1;ratioP1;P1;durP2;ratioP2;P2;SDS_P1;SDS_P2;PMS_P1;PMS_P2;Temp;Humidity;BMP_temperature;BMP_pressure;BME280_temperature;BME280_humidity;BME280_pressure;Samples;Min_cycle;Max_cycle;Signal;HPM_P1;HPM_P2
2022/11/12 00:01:34;;;;;;;29.38;15.82;;;;;;;3.02;100.00;100401.97;5028431;28;20025;-72
2022/11/12 00:03:59;;;;;;;33.75;15.00;;;;;;;3.01;100.00;100394.88;5031540;28;20108;-72
2022/11/12 00:06:25;;;;;;;32.75;12.20;;;;;;;3.02;100.00;100420.69;5024157;28;20033;-72
2022/11/12 00:08:50;;;;;;;37.67;13.20;;;;;;;2.93;100.00;100413.31;5023609;28;20029;-73
2022/11/12 00:11:15;;;;;;;40.83;14.10;;;;;;;2.82;100.00;100412.31;5032407;28;20087;-72
2022/11/12 00:13:41;;;;;;;43.17;16.20;;;;;;;2.76;100.00;100423.47;5029484;28;20132;-71
2022/11/12 00:16:06;;;;;;;40.28;13.48;;;;;;;2.64;100.00;100403.81;5033568;28;20100;-71
2022/11/12 00:18:32;;;;;;;28.45;12.90;;;;;;;2.50;100.00;100408.50;5034183;28;20017;-71
2022/11/12 00:20:57;;;;;;;33.65;14.07;;;;;;;2.40;100.00;100403.81;5027116;28;20407;-72
2022/11/12 00:23:22;;;;;;;32.17;13.85;;;;;;;2.19;100.00;100381.34;5027301;28;20040;-71
2022/11/12 00:25:57;;;;;;;29.52;12.90;;;;;;;2.07;100.00;100371.53;5026993;28;20395;-71
2022/11/12 00:28:22;;;;;;;25.73;12.07;;;;;;;2.32;100.00;100411.53;5041084;28;20607;-71
2022/11/12 00:30:47;;;;;;;25.83;12.00;;;;;;;2.20;100.00;100383.03;5028745;28;20021;-72
2022/11/12 00:33:13;;;;;;;22.17;10.75;;;;;;;2.40;100.00;100416.31;5030057;28;20044;-71
2022/11/12 00:35:38;;;;;;;19.92;10.45;;;;;;;2.43;100.00;100408.09;5022716;28;20032;-71
2022/11/12 00:38:03;;;;;;;22.52;10.27;;;;;;;2.42;100.00;100420.59;5024242;28;20021;-72
2022/11/12 00:40:29;;;;;;;19.13;10.77;;;;;;;2.45;100.00;100407.97;5022016;28;20030;-71
2022/11/12 00:42:54;;;;;;;18.73;9.70;;;;;;;2.52;100.00;100407.41;5041235;28;20053;-71
2022/11/12 00:45:20;;;;;;;17.88;10.00;;;;;;;2.60;100.00;100412.22;5016199;28;20030;-71
2022/11/12 00:47:46;;;;;;;24.95;10.95;;;;;;;2.62;100.00;100418.31;5037316;28;20029;-71
2022/11/12 00:50:11;;;;;;;16.75;9.70;;;;;;;2.61;100.00;100411.22;5032453;28;20088;-73
2022/11/12 00:52:37;;;;;;;28.42;11.05;;;;;;;2.58;100.00;100412.31;5032672;28;20021;-72
2022/11/12 00:55:03;;;;;;;30.63;11.15;;;;;;;2.56;100.00;100408.88;5017385;28;20033;-71
2022/11/12 00:57:28;;;;;;;21.67;9.85;;;;;;;2.56;100.00;100397.34;5014870;28;20395;-71
2022/11/12 00:59:54;;;;;;;19.40;8.98;;;;;;;2.32;100.00;100365.28;5036895;28;20029;-71
2022/11/12 01:02:21;;;;;;;19.85;9.27;;;;;;;2.58;100.00;100412.31;5030996;28;20387;-71
2022/11/12 01:04:46;;;;;;;18.73;8.88;;;;;;;2.57;100.00;100423.13;5029810;28;20067;-71
2022/11/12 01:07:11;;;;;;;21.73;9.77;;;;;;;2.39;100.00;100394.09;5021025;28;20057;-71
2022/11/12 01:09:36;;;;;;;23.08;10.88;;;;;;;2.48;100.00;100426.44;5046182;28;20021;-70
2022/11/12 01:12:02;;;;;;;34.13;14.25;;;;;;;2.52;100.00;100417.25;5018643;28;20603;-72
2022/11/12 01:14:27;;;;;;;25.65;13.80;;;;;;;2.39;100.00;100398.59;5021301;28;20021;-71
2022/11/12 01:16:52;;;;;;;22.27;12.68;;;;;;;2.17;100.00;100393.94;5039198;28;20030;-72
2022/11/12 01:19:18;;;;;;;19.83;11.20;;;;;;;2.37;100.00;100422.75;5022185;28;20037;-72
2022/11/12 01:21:43;;;;;;;19.63;10.85;;;;;;;2.19;100.00;100389.34;5024415;28;20449;-71
2022/11/12 01:24:09;;;;;;;47.92;11.43;;;;;;;2.14;100.00;100408.38;5032049;28;20034;-72
2022/11/12 01:26:35;;;;;;;24.17;12.05;;;;;;;2.09;100.00;100401.66;5029414;28;20553;-72
2022/11/12 01:29:01;;;;;;;21.20;12.20;;;;;;;2.03;100.00;100402.94;5023042;28;20036;-72
2022/11/12 01:31:29;;;;;;;19.92;10.88;;;;;;;1.95;100.00;100383.97;5030723;28;20048;-72
2022/11/12 01:34:00;;;;;;;19.50;10.63;;;;;;;1.92;100.00;100376.19;5020239;28;20088;-72
2022/11/12 01:36:27;;;;;;;16.60;9.23;;;;;;;2.02;100.00;100395.03;5021840;28;20123;-72
2022/11/12 01:38:54;;;;;;;24.58;11.18;;;;;;;1.98;100.00;100395.25;5031114;28;21044;-72
2022/11/12 01:41:27;;;;;;;50.42;10.60;;;;;;;1.84;100.00;100397.22;5032504;28;20101;-73
2022/11/12 01:44:24;;;;;;;21.83;8.52;;;;;;;1.78;100.00;100386.97;5021902;28;20052;-72
2022/11/12 01:47:20;;;;;;;11.07;6.43;;;;;;;1.72;100.00;100377.56;5024385;28;20033;-71
2022/11/12 01:50:13;;;;;;;24.30;9.57;;;;;;;1.51;100.00;100354.09;5025786;28;20025;-72
2022/11/12 01:52:49;;;;;;;36.35;12.73;;;;;;;1.52;100.00;100349.66;5025838;28;20045;-72
2022/11/12 01:55:21;;;;;;;39.58;13.00;;;;;;;1.58;100.00;100367.03;5044023;28;20039;-71
2022/11/12 01:57:52;;;;;;;29.35;11.32;;;;;;;1.57;100.00;100376.81;5027368;28;20121;-71
2022/11/12 02:00:17;;;;;;;32.42;11.70;;;;;;;1.41;100.00;100355.72;5042677;28;21728;-72
2022/11/12 02:02:48;;;;;;;24.58;8.60;;;;;;;1.53;100.00;100370.03;5022851;28;20064;-72
2022/11/12 02:05:16;;;;;;;71.18;18.50;;;;;;;1.31;100.00;100352.00;5025585;28;20030;-72
2022/11/12 02:07:44;;;;;;;52.28;17.17;;;;;;;1.37;100.00;100358.72;5021889;28;20042;-72
2022/11/12 02:10:10;;;;;;;42.58;14.50;;;;;;;1.33;100.00;100352.72;5030988;28;20075;-73
2022/11/12 02:15:20;;;;;;;11.20;6.68;;;;;;;1.53;100.00;100356.69;5028734;28;20183;-71
2022/11/12 02:17:45;;;;;;;11.50;7.00;;;;;;;1.44;100.00;100344.84;5027699;28;20103;-72
2022/11/12 02:20:13;;;;;;;15.18;7.68;;;;;;;1.58;100.00;100357.22;5031288;28;20119;-71
2022/11/12 02:22:38;;;;;;;18.20;8.27;;;;;;;1.69;100.00;100361.78;5025302;28;20051;-72
2022/11/12 02:25:05;;;;;;;12.15;6.60;;;;;;;1.56;100.00;100372.47;5025091;28;20504;-72
2022/11/12 02:27:30;;;;;;;16.45;7.95;;;;;;;1.43;100.00;100356.47;5034147;28;20122;-72
2022/11/12 02:29:55;;;;;;;14.65;7.60;;;;;;;1.38;100.00;100347.94;5023555;28;20053;-72
2022/11/12 02:32:21;;;;;;;20.95;10.02;;;;;;;1.41;100.00;100357.53;5024015;28;20122;-72
2022/11/12 02:34:46;;;;;;;24.23;10.35;;;;;;;1.40;100.00;100356.69;5028458;28;20041;-72
2022/11/12 02:37:11;;;;;;;53.67;19.73;;;;;;;1.44;100.00;100338.63;5033374;28;20041;-71
2022/11/12 02:39:36;;;;;;;28.15;13.52;;;;;;;1.57;100.00;100359.97;5025136;28;20384;-72
2022/11/12 02:42:02;;;;;;;22.30;9.90;;;;;;;1.36;100.00;100317.84;5024052;28;20034;-72
2022/11/12 02:44:29;;;;;;;19.50;9.30;;;;;;;1.54;100.00;100359.22;5034032;28;20116;-70
2022/11/12 02:46:55;;;;;;;14.63;8.45;;;;;;;1.39;100.00;100341.66;5024779;28;20479;-73
2022/11/12 02:49:20;;;;;;;12.32;7.68;;;;;;;1.38;100.00;100347.09;5035447;28;20044;-73
2022/11/12 02:51:45;;;;;;;16.70;8.73;;;;;;;1.42;100.00;100352.09;5024824;28;20045;-71
2022/11/12 02:54:10;;;;;;;19.73;10.23;;;;;;;1.34;100.00;100325.13;5021748;28;20076;-73
2022/11/12 02:56:36;;;;;;;19.58;10.40;;;;;;;1.37;100.00;100330.22;5024251;28;20503;-70
2022/11/12 02:59:01;;;;;;;25.05;11.48;;;;;;;1.37;100.00;100338.22;5043478;28;20037;-72
2022/11/12 03:01:26;;;;;;;23.80;11.38;;;;;;;1.46;100.00;100347.41;5032138;28;20087;-72
2022/11/12 03:03:52;;;;;;;20.25;9.65;;;;;;;1.46;100.00;100339.41;5029386;28;20395;-71
2022/11/12 03:06:17;;;;;;;10.90;6.47;;;;;;;1.60;100.00;100365.09;5021797;28;20041;-74
2022/11/12 03:08:43;;;;;;;14.25;7.45;;;;;;;1.60;100.00;100354.41;5031841;28;20116;-71
2022/11/12 03:11:11;;;;;;;23.27;10.13;;;;;;;1.69;100.00;100362.63;5031398;28;20395;-71
2022/11/12 03:13:37;;;;;;;16.77;7.60;;;;;;;0.83;100.00;100224.66;5028862;28;20045;-71
2022/11/12 03:16:03;;;;;;;9.98;6.75;;;;;;;1.57;100.00;100367.97;5032462;28;20131;-71
2022/11/12 03:18:28;;;;;;;9.38;6.07;;;;;;;1.65;100.00;100369.16;5032372;28;20036;-72
2022/11/12 03:20:54;;;;;;;11.32;6.25;;;;;;;1.56;100.00;100344.94;5028316;28;20026;-72
2022/11/12 03:23:19;;;;;;;9.10;6.15;;;;;;;1.50;100.00;100341.75;5023985;28;20040;-72
2022/11/12 03:25:44;;;;;;;10.23;5.70;;;;;;;1.56;100.00;100356.47;5034250;28;20103;-71
2022/11/12 03:28:12;;;;;;;8.63;5.50;;;;;;;1.46;100.00;100329.56;5019203;28;20029;-72
2022/11/12 03:30:40;;;;;;;9.18;6.00;;;;;;;1.58;100.00;100348.38;5026753;28;20040;-71
2022/11/12 03:33:07;;;;;;;11.10;6.05;;;;;;;1.60;100.00;100357.97;5023932;28;20445;-72
2022/11/12 03:35:33;;;;;;;8.50;5.43;;;;;;;1.57;100.00;100357.31;5033383;28;20045;-71
2022/11/12 03:37:59;;;;;;;7.50;5.10;;;;;;;1.49;100.00;100353.38;5024985;28;20029;-70
2022/11/12 03:40:25;;;;;;;6.85;4.70;;;;;;;1.36;100.00;100328.50;5031430;28;20033;-71
2022/11/12 03:42:51;;;;;;;7.05;4.88;;;;;;;1.49;100.00;100360.50;5025886;28;20037;-70
2022/11/12 03:45:18;;;;;;;6.50;4.32;;;;;;;1.50;100.00;100355.09;5032163;28;20037;-72
2022/11/12 03:47:45;;;;;;;6.50;4.32;;;;;;;1.48;100.00;100359.66;5033851;28;20566;-71
2022/11/12 03:50:12;;;;;;;6.35;4.20;;;;;;;1.46;100.00;100352.72;5025509;28;20065;-72
2022/11/12 03:52:38;;;;;;;7.63;4.93;;;;;;;1.32;100.00;100343.03;5024940;28;20036;-72
2022/11/12 03:55:06;;;;;;;5.82;3.92;;;;;;;1.18;100.00;100314.66;5028104;28;20021;-71
2022/11/12 03:57:31;;;;;;;8.80;4.87;;;;;;;1.24;100.00;100318.72;5024331;28;20048;-72
2022/11/12 03:59:57;;;;;;;7.40;4.65;;;;;;;1.28;100.00;100326.41;5028910;28;20025;-72
2022/11/12 04:02:24;;;;;;;7.50;4.30;;;;;;;1.24;100.00;100308.91;5039418;28;20399;-72
2022/11/12 04:10:17;;;;;;;5.85;3.83;;;;;;;1.68;100.00;100355.59;5021431;28;20517;-71
2022/11/12 04:15:26;;;;;;;6.55;4.70;;;;;;;1.75;100.00;100334.66;5040180;28;20079;-71
2022/11/12 04:23:23;;;;;;;10.35;6.18;;;;;;;1.68;100.00;100352.94;4994146;28;20048;-72
2022/11/12 04:28:32;;;;;;;9.60;6.50;;;;;;;1.72;100.00;100362.41;5030022;28;20044;-71
2022/11/12 04:30:57;;;;;;;10.07;5.90;;;;;;;1.67;100.00;100369.88;5028367;28;20017;-71
2022/11/12 04:33:23;;;;;;;8.93;6.15;;;;;;;1.55;100.00;100349.44;5032935;28;20070;-71
2022/11/12 04:35:48;;;;;;;9.93;5.25;;;;;;;1.71;100.00;100359.88;5028566;28;20034;-71
2022/11/12 04:38:13;;;;;;;17.88;5.78;;;;;;;1.89;100.00;100347.91;5017438;28;20091;-71
2022/11/12 04:46:06;;;;;;;9.57;6.13;;;;;;;2.11;100.00;100330.31;5032683;28;20045;-71
2022/11/12 04:48:31;;;;;;;10.20;5.95;;;;;;;2.30;100.00;100352.03;5037449;28;20729;-71
2022/11/12 04:52:03;;;;;;;10.55;6.18;;;;;;;2.31;100.00;100358.25;5030720;28;20384;-72
2022/11/12 04:53:53;;;;;;;11.90;6.25;;;;;;;2.24;100.00;100352.50;5020032;28;20094;-72
2022/11/12 04:56:18;;;;;;;10.25;6.95;;;;;;;2.22;100.00;100373.09;5039760;28;20024;-71
2022/11/12 04:58:43;;;;;;;11.25;6.70;;;;;;;1.70;100.00;100303.00;5025982;28;20566;-72
2022/11/12 05:01:09;;;;;;;11.68;7.20;;;;;;;1.83;100.00;100348.31;5036248;28;20022;-71
2022/11/12 05:03:34;;;;;;;13.32;6.28;;;;;;;1.75;100.00;100334.66;5026081;28;20033;-71
2022/11/12 05:06:02;;;;;;;10.32;6.13;;;;;;;2.01;100.00;100377.31;5029629;28;20532;-71
2022/11/12 05:08:27;;;;;;;8.27;5.53;;;;;;;1.98;100.00;100368.56;5041417;28;20067;-70
2022/11/12 05:10:52;;;;;;;8.07;5.47;;;;;;;2.01;100.00;100382.66;5034750;28;20025;-70
2022/11/12 05:13:17;;;;;;;8.82;5.70;;;;;;;1.97;100.00;100376.72;5023405;28;20033;-71
2022/11/12 05:15:43;;;;;;;9.50;5.80;;;;;;;1.81;100.00;100355.59;5039082;28;20467;-71
2022/11/12 05:18:08;;;;;;;11.85;5.88;;;;;;;1.95;100.00;100365.28;5023207;28;20029;-71
2022/11/12 05:20:34;;;;;;;8.77;5.32;;;;;;;1.95;100.00;100373.28;5027586;28;20093;-70
2022/11/12 05:22:59;;;;;;;9.40;6.03;;;;;;;1.97;100.00;100352.69;5032138;28;20029;-70
2022/11/12 05:25:25;;;;;;;13.35;7.40;;;;;;;1.98;100.00;100360.56;5036065;28;20029;-71
2022/11/12 05:27:50;;;;;;;10.13;6.78;;;;;;;1.89;100.00;100352.38;5047904;28;20053;-71
2022/11/12 05:30:15;;;;;;;12.02;7.00;;;;;;;2.00;100.00;100370.28;5025470;28;20399;-71
2022/11/12 05:32:40;;;;;;;9.85;5.97;;;;;;;2.07;100.00;100366.19;5025390;28;20154;-71
2022/11/12 05:35:06;;;;;;;8.18;5.07;;;;;;;2.35;100.00;100376.59;5025775;28;20033;-70
2022/11/12 05:37:31;;;;;;;9.45;5.80;;;;;;;2.42;100.00;100380.53;5018182;28;20160;-71
2022/11/12 05:39:57;;;;;;;9.45;5.82;;;;;;;2.50;100.00;100360.41;5020264;28;20050;-71
2022/11/12 05:42:22;;;;;;;9.75;5.30;;;;;;;2.40;100.00;100342.38;5036345;28;20025;-71
2022/11/12 05:44:47;;;;;;;8.30;5.50;;;;;;;2.40;100.00;100339.72;5018098;28;20026;-71
2022/11/12 05:47:12;;;;;;;10.90;5.43;;;;;;;2.24;100.00;100328.47;5047323;28;20036;-70
2022/11/12 05:49:38;;;;;;;7.65;5.72;;;;;;;2.36;100.00;100358.78;5023204;28;20022;-71
2022/11/12 05:52:03;;;;;;;8.05;4.95;;;;;;;2.29;100.00;100369.03;5021389;28;20026;-70
2022/11/12 05:54:28;;;;;;;8.50;5.55;;;;;;;2.45;100.00;100374.09;5035237;28;20039;-70
2022/11/12 05:56:54;;;;;;;10.02;5.72;;;;;;;2.12;100.00;100337.34;5031693;28;20033;-72
2022/11/12 05:59:19;;;;;;;10.35;5.45;;;;;;;2.06;100.00;100353.81;5026679;28;20075;-76
2022/11/12 06:01:44;;;;;;;8.13;5.07;;;;;;;1.94;100.00;100355.56;5041250;28;20032;-78
2022/11/12 06:04:11;;;;;;;9.95;6.18;;;;;;;1.85;100.00;100357.06;5025817;28;20083;-78
2022/11/12 06:06:37;;;;;;;9.27;5.65;;;;;;;1.96;100.00;100365.19;5028547;28;20025;-78
2022/11/12 06:09:04;;;;;;;9.00;5.75;;;;;;;1.64;100.00;100331.91;5023249;28;20055;-81
2022/11/12 06:11:29;;;;;;;8.35;5.35;;;;;;;1.64;100.00;100340.78;5038901;28;20108;-80
2022/11/12 06:13:54;;;;;;;10.07;5.32;;;;;;;1.63;100.00;100340.91;5029913;28;20048;-80
2022/11/12 06:16:20;;;;;;;8.82;5.40;;;;;;;1.60;100.00;100355.31;5026997;28;20037;-78
2022/11/12 06:18:45;;;;;;;7.43;4.93;;;;;;;1.33;100.00;100327.88;5033870;28;20033;-80
2022/11/12 06:21:23;;;;;;;8.10;4.60;;;;;;;1.58;100.00;100364.38;5033958;28;20044;-79
2022/11/12 06:23:52;;;;;;;6.93;4.60;;;;;;;1.47;100.00;100373.13;5037378;28;20054;-80
2022/11/12 06:26:18;;;;;;;8.40;5.07;;;;;;;1.61;100.00;100393.50;5035913;28;20725;-80
2022/11/12 06:28:44;;;;;;;8.90;4.75;;;;;;;1.44;100.00;100366.19;5031259;28;20514;-79
2022/11/12 06:31:09;;;;;;;9.75;5.60;;;;;;;1.48;100.00;100375.66;5026524;28;20013;-74
2022/11/12 06:33:35;;;;;;;9.93;6.22;;;;;;;1.47;100.00;100359.78;5030429;28;20026;-77
2022/11/12 06:36:03;;;;;;;13.30;6.70;;;;;;;1.72;100.00;100393.59;5027186;28;20021;-77
2022/11/12 06:38:29;;;;;;;11.73;5.60;;;;;;;1.62;100.00;100377.38;5027554;28;20037;-77
2022/11/12 06:40:55;;;;;;;8.90;5.78;;;;;;;1.84;100.00;100403.41;5020294;28;20037;-76
2022/11/12 06:43:20;;;;;;;8.88;5.65;;;;;;;1.81;100.00;100366.28;5017568;28;20030;-74
2022/11/12 06:45:46;;;;;;;17.10;5.97;;;;;;;1.97;100.00;100377.56;5020031;28;20033;-75
2022/11/12 06:48:11;;;;;;;16.52;5.75;;;;;;;1.88;100.00;100346.16;5016668;28;20118;-74
2022/11/12 06:50:37;;;;;;;9.85;5.55;;;;;;;2.05;100.00;100369.00;5030352;28;20033;-76
2022/11/12 06:53:02;;;;;;;9.07;5.57;;;;;;;2.26;100.00;100379.94;5027401;28;21309;-79
2022/11/12 06:55:27;;;;;;;12.80;6.00;;;;;;;2.45;100.00;100402.63;5037687;28;20033;-70
2022/11/12 06:57:52;;;;;;;13.35;6.38;;;;;;;2.59;100.00;100392.66;5027639;28;20029;-69
2022/11/12 07:00:18;;;;;;;13.15;7.07;;;;;;;2.70;100.00;100394.53;5023981;28;20108;-70
2022/11/12 07:02:44;;;;;;;12.38;8.68;;;;;;;2.91;100.00;100375.16;5027598;28;20057;-70
2022/11/12 07:05:09;;;;;;;15.05;9.02;;;;;;;3.32;100.00;100387.22;5024958;28;20105;-70
2022/11/12 07:07:34;;;;;;;16.70;7.65;;;;;;;3.63;100.00;100373.16;5018016;28;20057;-70
2022/11/12 07:10:00;;;;;;;12.60;7.95;;;;;;;4.26;100.00;100368.13;5025945;28;20517;-69
2022/11/12 07:12:26;;;;;;;11.45;7.13;;;;;;;4.93;100.00;100368.94;5024115;28;20057;-70
2022/11/12 07:14:51;;;;;;;9.38;6.22;;;;;;;5.52;100.00;100348.72;5029275;28;20022;-70
2022/11/12 07:17:16;;;;;;;9.07;5.13;;;;;;;6.14;100.00;100310.13;5027543;28;20482;-68
2022/11/12 07:19:42;;;;;;;7.70;4.88;;;;;;;7.36;100.00;100329.38;5027413;28;20030;-70
2022/11/12 07:22:07;;;;;;;7.90;4.88;;;;;;;8.24;100.00;100324.50;5022958;28;20046;-68
2022/11/12 07:24:32;;;;;;;8.85;5.13;;;;;;;8.95;100.00;100318.31;5024764;28;20048;-68
2022/11/12 07:26:57;;;;;;;9.18;4.97;;;;;;;9.56;100.00;100322.84;5024561;28;20033;-68
2022/11/12 07:29:23;;;;;;;11.60;6.30;;;;;;;10.60;100.00;100332.56;5020550;28;20029;-74
2022/11/12 07:31:48;;;;;;;10.45;6.80;;;;;;;10.95;100.00;100317.03;5027906;28;20033;-73
2022/11/12 07:34:13;;;;;;;9.90;7.13;;;;;;;11.77;100.00;100292.56;5024434;28;20029;-74
2022/11/12 07:36:39;;;;;;;9.55;6.50;;;;;;;12.89;100.00;100290.41;5030490;28;20033;-75
2022/11/12 07:39:04;;;;;;;13.05;6.28;;;;;;;14.33;100.00;100275.66;5028982;28;20028;-74
2022/11/12 07:41:29;;;;;;;11.57;6.03;;;;;;;14.75;91.37;100294.97;5027040;28;20095;-76
2022/11/12 07:43:55;;;;;;;10.60;5.45;;;;;;;14.64;82.61;100308.06;5029324;28;20024;-74
2022/11/12 07:46:23;;;;;;;9.68;5.60;;;;;;;13.96;70.86;100312.00;5025809;28;20467;-76
2022/11/12 07:48:49;;;;;;;54.58;7.32;;;;;;;15.13;74.37;100317.34;5032537;28;20072;-71
2022/11/12 07:51:15;;;;;;;14.82;6.82;;;;;;;15.62;66.10;100307.47;5025391;28;20021;-70
2022/11/12 07:53:42;;;;;;;11.18;7.20;;;;;;;15.64;62.12;100311.69;5047745;28;20029;-76
2022/11/12 07:56:10;;;;;;;13.05;7.40;;;;;;;15.75;67.34;100299.41;5027629;28;20443;-74
2022/11/12 07:58:35;;;;;;;18.17;8.60;;;;;;;15.55;62.91;100280.13;5028980;28;20025;-76
2022/11/12 08:01:09;;;;;;;16.30;6.97;;;;;;;16.08;60.60;100317.84;5032594;28;20025;-75
2022/11/12 08:03:35;;;;;;;9.15;5.70;;;;;;;16.42;61.91;100309.56;5032100;28;20061;-76
2022/11/12 08:06:01;;;;;;;9.30;5.55;;;;;;;16.59;58.74;100306.50;5024929;28;20521;-75
2022/11/12 08:08:26;;;;;;;10.55;4.95;;;;;;;16.49;61.75;100304.16;5025669;28;20079;-74
2022/11/12 08:10:56;;;;;;;6.43;4.20;;;;;;;17.06;57.79;100308.31;5030659;28;20028;-77
2022/11/12 08:13:22;;;;;;;5.70;4.30;;;;;;;17.28;58.69;100311.66;5029499;28;20025;-75
2022/11/12 08:15:47;;;;;;;6.30;4.90;;;;;;;17.23;58.00;100286.00;5032034;28;20434;-75
2022/11/12 08:18:13;;;;;;;9.95;4.93;;;;;;;17.27;56.60;100287.28;5029861;28;20044;-74
2022/11/12 08:20:38;;;;;;;5.72;4.13;;;;;;;18.04;56.00;100301.28;5029503;28;20539;-74
2022/11/12 08:23:03;;;;;;;5.03;3.83;;;;;;;19.29;53.44;100265.97;5031830;28;20105;-74
2022/11/12 08:25:29;;;;;;;5.32;3.50;;;;;;;19.82;51.97;100270.13;5025710;28;20164;-75
2022/11/12 08:27:55;;;;;;;5.40;3.60;;;;;;;19.76;50.73;100310.34;5020824;28;20957;-74
2022/11/12 08:30:21;;;;;;;4.43;3.45;;;;;;;19.59;51.87;100298.22;5029426;28;20022;-75
2022/11/12 08:32:46;;;;;;;7.15;4.00;;;;;;;19.35;53.25;100298.00;5031041;28;20804;-77
2022/11/12 08:35:11;;;;;;;8.13;4.68;;;;;;;18.58;51.32;100289.03;5032852;28;20025;-78
2022/11/12 08:37:37;;;;;;;6.28;4.30;;;;;;;17.48;56.70;100269.78;5033704;28;20056;-76
2022/11/12 08:40:02;;;;;;;6.57;4.32;;;;;;;18.50;53.99;100297.53;5041263;28;20021;-76
2022/11/12 08:42:27;;;;;;;7.32;4.93;;;;;;;17.77;56.56;100270.38;5024721;28;20377;-71
2022/11/12 08:44:53;;;;;;;7.75;4.57;;;;;;;17.80;57.19;100287.22;5028996;28;20109;-77
2022/11/12 08:47:18;;;;;;;6.63;4.10;;;;;;;17.24;59.26;100290.44;5034557;28;20479;-77
2022/11/12 08:49:43;;;;;;;13.73;4.50;;;;;;;17.21;57.63;100304.50;5031548;28;20061;-75
2022/11/12 08:52:09;;;;;;;5.18;3.88;;;;;;;17.11;59.15;100294.00;5029701;28;20030;-75
2022/11/12 08:54:34;;;;;;;6.63;3.78;;;;;;;17.07;58.89;100300.94;5032006;28;20032;-76
2022/11/12 08:56:59;;;;;;;9.50;4.28;;;;;;;17.44;58.33;100293.16;5032685;28;20025;-73
2022/11/12 08:59:24;;;;;;;6.80;3.50;;;;;;;17.72;58.66;100273.75;5041436;28;20040;-74
2022/11/12 09:01:50;;;;;;;9.20;3.50;;;;;;;17.60;58.20;100302.81;5033617;28;20033;-73
2022/11/12 09:04:15;;;;;;;7.03;3.42;;;;;;;18.24;56.48;100298.47;5046951;28;20403;-68
2022/11/12 09:06:40;;;;;;;5.53;3.80;;;;;;;18.71;60.28;100297.19;5031964;28;20044;-67
2022/11/12 09:09:06;;;;;;;10.73;3.30;;;;;;;20.58;100.00;100286.13;5020632;28;20022;-67
2022/11/12 09:11:31;;;;;;;9.88;3.20;;;;;;;22.25;51.33;100295.16;5024085;28;20140;-59
2022/11/12 09:14:50;;;;;;;12.57;7.07;;;;;;;20.36;51.58;100293.16;5034631;28;20818;-72
2022/11/12 09:17:15;;;;;;;7.80;4.13;;;;;;;18.63;54.43;100302.94;5024672;28;20045;-67
2022/11/12 09:19:41;;;;;;;7.05;3.97;;;;;;;17.93;58.81;100283.63;5031728;28;20026;-71
2022/11/12 09:22:06;;;;;;;7.43;3.45;;;;;;;19.46;56.21;100280.78;5029419;28;20040;-68
2022/11/12 09:24:32;;;;;;;4.43;3.50;;;;;;;18.99;54.86;100294.09;5026028;28;20093;-68
2022/11/12 09:26:57;;;;;;;5.57;3.47;;;;;;;20.02;54.02;100289.16;5023555;28;20025;-68
2022/11/12 09:29:23;;;;;;;7.15;3.58;;;;;;;20.92;52.49;100291.97;5021699;28;20053;-71
2022/11/12 09:31:48;;;;;;;5.35;3.85;;;;;;;21.29;48.94;100279.97;5024954;28;20030;-72
2022/11/12 09:34:13;;;;;;;5.28;3.67;;;;;;;20.16;50.08;100270.59;5024206;28;20440;-71
2022/11/12 09:36:39;;;;;;;9.68;4.30;;;;;;;18.97;52.83;100271.53;5020297;28;20038;-70
2022/11/12 09:39:04;;;;;;;8.73;4.22;;;;;;;17.37;58.92;100300.50;5023505;28;20048;-71
2022/11/12 09:41:38;;;;;;;9.07;4.43;;;;;;;17.19;62.45;100276.56;5027143;28;20053;-74
2022/11/12 09:44:14;;;;;;;5.55;3.50;;;;;;;16.25;64.50;100297.34;5017812;28;20109;-68
2022/11/12 09:47:01;;;;;;;7.43;4.05;;;;;;;16.31;65.66;100285.59;5027680;28;20033;-69
2022/11/12 09:49:44;;;;;;;5.95;3.90;;;;;;;15.74;70.31;100290.34;5021767;28;20025;-69
2022/11/12 09:52:18;;;;;;;5.85;3.83;;;;;;;15.02;79.07;100298.81;5018315;28;20387;-71
2022/11/12 09:54:44;;;;;;;4.10;3.28;;;;;;;15.29;79.77;100278.88;5019361;28;20488;-71
2022/11/12 09:57:12;;;;;;;5.22;3.80;;;;;;;15.61;76.16;100275.75;5027076;28;20029;-73
2022/11/12 09:59:41;;;;;;;4.67;3.20;;;;;;;15.97;73.27;100284.59;5023161;28;20025;-72
2022/11/12 10:02:45;;;;;;;5.72;3.42;;;;;;;17.23;66.18;100292.31;5024861;28;20025;-70
2022/11/12 10:05:45;;;;;;;5.32;3.55;;;;;;;17.48;64.66;100254.22;5016316;28;20026;-71
2022/11/12 10:08:39;;;;;;;9.07;3.60;;;;;;;17.86;62.24;100286.38;5019369;28;20125;-74
2022/11/12 10:12:30;;;;;;;6.82;4.18;;;;;;;16.93;66.28;100282.84;5020168;28;20471;-71
2022/11/12 10:14:33;;;;;;;7.20;3.10;;;;;;;18.03;64.36;100273.06;5018642;28;20030;-71
2022/11/12 10:17:17;;;;;;;4.60;2.72;;;;;;;18.38;62.89;100283.66;5022341;28;20041;-81
2022/11/12 10:19:57;;;;;;;6.88;3.60;;;;;;;17.27;63.88;100279.06;5020099;28;20116;-71
2022/11/12 10:22:43;;;;;;;5.50;2.88;;;;;;;17.33;65.50;100288.31;5018211;28;20064;-69
2022/11/12 10:25:14;;;;;;;6.47;3.75;;;;;;;16.07;69.88;100264.28;5011261;28;20471;-68
2022/11/12 10:27:42;;;;;;;3.10;2.50;;;;;;;16.58;71.26;100282.94;5004406;28;20050;-68
2022/11/12 10:30:17;;;;;;;13.68;3.50;;;;;;;17.46;69.69;100283.69;5003888;28;20033;-69
2022/11/12 10:32:45;;;;;;;17.00;3.38;;;;;;;18.06;65.52;100271.78;5007486;28;20041;-68
2022/11/12 10:35:16;;;;;;;6.43;3.08;;;;;;;18.75;61.18;100264.72;5008745;28;20034;-67
2022/11/12 10:37:50;;;;;;;5.88;3.55;;;;;;;18.26;61.09;100267.06;5010027;28;20034;-68
2022/11/12 10:40:24;;;;;;;7.32;2.90;;;;;;;18.91;58.83;100269.66;4999573;28;20061;-68
2022/11/12 10:43:16;;;;;;;7.43;3.42;;;;;;;18.26;60.96;100271.69;5002749;28;20064;-68
2022/11/12 10:45:46;;;;;;;6.22;3.47;;;;;;;17.42;64.08;100262.41;5005056;28;20034;-68
2022/11/12 10:48:27;;;;;;;5.88;3.28;;;;;;;16.58;68.78;100263.81;5003015;28;20129;-68
2022/11/12 10:50:53;;;;;;;8.02;3.38;;;;;;;15.84;72.33;100262.69;5004204;28;20060;-68
2022/11/12 10:53:31;;;;;;;5.05;3.33;;;;;;;16.10;76.46;100266.63;4996342;28;20022;-68
2022/11/12 10:55:58;;;;;;;6.47;2.95;;;;;;;15.97;76.59;100262.78;5005718;28;20029;-68
2022/11/12 10:58:24;;;;;;;24.98;3.90;;;;;;;17.33;70.50;100261.81;5000192;28;20038;-68
2022/11/12 11:01:06;;;;;;;12.35;3.08;;;;;;;18.67;65.62;100263.03;5001088;28;20030;-68
2022/11/12 11:03:35;;;;;;;4.90;2.30;;;;;;;19.68;60.63;100253.81;5002044;28;20018;-69
2022/11/12 11:06:05;;;;;;;6.53;3.17;;;;;;;19.66;60.03;100255.06;5006638;28;20022;-71
2022/11/12 11:08:41;;;;;;;4.80;3.33;;;;;;;19.62;59.82;100249.19;5010308;28;20133;-71
2022/11/12 11:11:16;;;;;;;5.47;3.47;;;;;;;19.75;57.88;100245.47;5002228;28;20468;-73
2022/11/12 11:13:43;;;;;;;6.32;2.83;;;;;;;19.13;59.37;100241.84;5007385;28;20022;-73
2022/11/12 11:16:21;;;;;;;6.18;3.20;;;;;;;20.20;56.14;100228.69;5010236;28;20036;-77
2022/11/12 11:18:54;;;;;;;5.53;3.50;;;;;;;20.56;55.71;100229.69;5006377;28;20030;-71
2022/11/12 11:21:34;;;;;;;5.18;2.85;;;;;;;21.32;53.92;100246.44;5000558;28;20018;-72
2022/11/12 11:24:18;;;;;;;3.95;3.20;;;;;;;21.32;53.12;100250.03;5002808;28;20041;-73
2022/11/12 11:27:02;;;;;;;3.97;2.88;;;;;;;23.29;50.71;100235.25;5005277;28;20149;-73
2022/11/12 11:29:35;;;;;;;5.57;3.10;;;;;;;22.92;49.46;100232.97;5003297;28;20498;-73
2022/11/12 11:32:20;;;;;;;3.67;2.90;;;;;;;23.77;48.09;100234.63;5006810;28;20034;-71
2022/11/12 11:35:10;;;;;;;5.03;2.88;;;;;;;24.40;46.40;100232.38;5005269;28;20484;-71
2022/11/12 11:37:46;;;;;;;2.85;2.40;;;;;;;25.12;44.56;100222.81;5004425;28;20076;-71
2022/11/12 11:40:19;;;;;;;6.72;3.28;;;;;;;22.99;47.93;100230.94;5012832;28;20369;-70
2022/11/12 11:42:56;;;;;;;5.55;3.20;;;;;;;24.11;46.14;100223.47;5005501;28;20037;-71
2022/11/12 11:45:46;;;;;;;5.00;3.13;;;;;;;24.42;45.19;100208.06;4998566;28;20455;-77
2022/11/12 11:48:38;;;;;;;5.22;2.70;;;;;;;25.28;44.24;100220.19;5004700;28;20038;-70
2022/11/12 11:51:29;;;;;;;3.97;2.53;;;;;;;25.10;44.02;100207.59;5002347;28;20499;-73